Airfield :
LOGIN :

Register | Disclaimer

   EN    FR    IT 

 










Legend :    VFR   Marginal VFR   IFR   Intensive IFR   Very Intensive IFR
Visi :
Ceiling :
>= 8 km
>= 3000ft
5 to 8 km
1000 to 3000 ft
1500m to 5 km
500 to 1000 ft
800 to 1500m
200 to 500 ft
< 800m
< 200 ft
Symbols :   Thunderstorms  Fog  Heavy snow  Heavy precipitations  Wind > 20 kt
SIGMETs :     Misc.  Thunderstorms  Icing  Turbulence  Mountain Waves  Volcanic Ashes







- Airport Elevation : 146 ft
- IATA code : RKE


EKRK - Roskilde Tune

CURRENT METAR :
  • 172220Z AUTO 36010KT 9999NDV SCT026/// BKN032/// M02/M06 Q1003 R99/720293 R99/710295

EXPIRED METARs :
  • 172150Z AUTO 35014KT 9999NDV BKN027/// BKN031/// M02/M06 Q1002 R99/720293 R99/710295
  • 172120Z AUTO 36015KT 9999NDV FEW021/// BKN026/// BKN030/// M02/M05 Q1001 R99/720293 R99/710295
  • 172050Z AUTO 36014KT 9999NDV SCT021/// BKN025/// M02/M05 Q1001 R03/720293 R/710295
  • 172020Z AUTO 35016KT 9999NDV SCT022/// M02/M06 Q1000 R03/720293 R/710295
  • 171950Z AUTO 35014KT 9999NDV FEW022/// M01/M05 Q0999 R03/720293 R/710295

TAF TAF EKRK
Valid from the 17 at 21:00 until the 18 at 06:00 UTC


172020Z 1721/1806 35015KT 9999 FEW020
BECMG 1802/1805 28008KT
No reported NOTAMs for that airfield.



MET'MAP, your aeronautical weather chart ! - Copyright ORBIFLY December 2007 - Disclaimer

ORBIFLY MET'MAP TEAM :

Programming & Development : Alexandra Zaïnal
Concept & Development : Baudouin d'Aumeries
Co-Development & Prog : Marc-Olivier Méhu
Technical & hardware support : Manuel Goepfert

Contact : metmap@orbifly.com




SOURCES & CREDITS :

   NOAA